Time;durP1;ratioP1;P1;durP2;ratioP2;P2;SDS_P1;SDS_P2;PMS_P1;PMS_P2;Temp;Humidity;BMP_temperature;BMP_pressure;BME280_temperature;BME280_humidity;BME280_pressure;Samples;Min_cycle;Max_cycle;Signal;HPM_P1;HPM_P2
2021/12/28 00:00:24;;;;;;;;;;;22.00;51.10;;;;;;6331446;27;20050;-44
2021/12/28 00:03:26;;;;;;;;;;;21.70;51.00;;;;;;6344194;27;20049;-44
2021/12/28 00:06:27;;;;;;;;;;;21.60;50.90;;;;;;6313321;28;20046;-44
2021/12/28 00:09:29;;;;;;;;;;;21.80;51.00;;;;;;6328091;28;19972;-42
2021/12/28 00:12:33;;;;;;;;;;;22.10;51.20;;;;;;6341825;27;19928;-42
2021/12/28 00:15:47;;;;;;;;;;;23.10;51.80;;;;;;6336209;27;20034;-42
2021/12/28 00:18:49;;;;;;;;;;;21.90;51.20;;;;;;6304297;28;19927;-42
2021/12/28 00:21:51;;;;;;;;;;;21.70;51.10;;;;;;6309735;27;20027;-42
2021/12/28 00:24:53;;;;;;;;;;;21.60;51.00;;;;;;6324436;28;20031;-42
2021/12/28 00:27:54;;;;;;;;;;;21.60;51.10;;;;;;6320714;28;20046;-43
2021/12/28 00:30:56;;;;;;;;;;;21.70;51.10;;;;;;6333168;27;19934;-42
2021/12/28 00:33:58;;;;;;;;;;;21.60;51.10;;;;;;6325963;27;19926;-42
2021/12/28 00:37:00;;;;;;;;;;;21.90;51.30;;;;;;6307715;28;19927;-43
2021/12/28 00:40:02;;;;;;;;;;;22.20;51.40;;;;;;6322116;28;20050;-44
2021/12/28 00:43:04;;;;;;;;;;;22.00;51.30;;;;;;6300608;28;19923;-42
2021/12/28 00:46:06;;;;;;;;;;;21.70;51.10;;;;;;6318631;28;20049;-42
2021/12/28 00:49:07;;;;;;;;;;;22.00;51.30;;;;;;6315725;28;19923;-44
2021/12/28 00:52:08;;;;;;;;;;;21.60;51.10;;;;;;6330384;27;19934;-43
2021/12/28 00:55:11;;;;;;;;;;;21.60;51.20;;;;;;6326079;27;19966;-43
2021/12/28 00:58:12;;;;;;;;;;;21.90;51.20;;;;;;6320211;27;20518;-45
2021/12/28 01:01:14;;;;;;;;;;;21.90;51.40;;;;;;6334750;27;19935;-46
2021/12/28 01:04:16;;;;;;;;;;;21.80;51.30;;;;;;6339995;27;19923;-42
2021/12/28 01:07:17;;;;;;;;;;;21.60;51.20;;;;;;6347883;27;19934;-42
2021/12/28 01:10:20;;;;;;;;;;;22.20;51.80;;;;;;6346814;27;19927;-42
2021/12/28 01:13:22;;;;;;;;;;;21.50;51.10;;;;;;6313438;28;21673;-42
2021/12/28 01:16:23;;;;;;;;;;;21.90;51.30;;;;;;6329497;28;20044;-42
2021/12/28 01:19:25;;;;;;;;;;;22.20;51.50;;;;;;6312959;28;19924;-47
2021/12/28 01:22:27;;;;;;;;;;;21.60;51.20;;;;;;6334557;28;19923;-44
2021/12/28 01:25:29;;;;;;;;;;;21.80;51.20;;;;;;6339636;27;19982;-42
2021/12/28 01:28:30;;;;;;;;;;;21.90;51.30;;;;;;6349930;27;19927;-43
2021/12/28 01:31:31;;;;;;;;;;;21.60;51.20;;;;;;6333874;28;20753;-42
2021/12/28 01:34:33;;;;;;;;;;;21.60;51.10;;;;;;6330013;28;20656;-42
2021/12/28 01:37:34;;;;;;;;;;;21.60;51.10;;;;;;6326486;28;19924;-42
2021/12/28 01:40:38;;;;;;;;;;;22.00;51.30;;;;;;6330167;28;19927;-42
2021/12/28 01:43:40;;;;;;;;;;;21.60;51.20;;;;;;6345399;27;20709;-42
2021/12/28 01:46:42;;;;;;;;;;;21.80;51.20;;;;;;6336214;27;19959;-42
2021/12/28 01:49:43;;;;;;;;;;;21.80;51.30;;;;;;6327231;28;20017;-44
2021/12/28 01:52:44;;;;;;;;;;;21.50;51.10;;;;;;6327943;28;20022;-42
2021/12/28 01:55:48;;;;;;;;;;;21.80;51.30;;;;;;6326704;28;19928;-42
2021/12/28 01:58:50;;;;;;;;;;;21.80;51.20;;;;;;6342995;27;20607;-43
2021/12/28 02:01:51;;;;;;;;;;;21.60;51.10;;;;;;6345922;27;19992;-42
2021/12/28 02:04:53;;;;;;;;;;;21.70;51.20;;;;;;6330042;27;19962;-42
2021/12/28 02:07:54;;;;;;;;;;;21.80;51.30;;;;;;6330620;27;19961;-42
2021/12/28 02:10:56;;;;;;;;;;;21.60;51.20;;;;;;6335835;27;20397;-42
2021/12/28 02:13:58;;;;;;;;;;;21.60;51.20;;;;;;6323207;28;19951;-43
2021/12/28 02:16:59;;;;;;;;;;;21.50;51.10;;;;;;6328243;27;19934;-43
2021/12/28 02:20:04;;;;;;;;;;;21.70;51.30;;;;;;6347022;27;20321;-42
2021/12/28 02:23:06;;;;;;;;;;;21.70;51.10;;;;;;6329380;27;19929;-46
2021/12/28 02:26:07;;;;;;;;;;;21.90;51.30;;;;;;6325066;28;20323;-42
2021/12/28 02:29:09;;;;;;;;;;;21.60;51.10;;;;;;6324785;28;20681;-44
2021/12/28 02:32:10;;;;;;;;;;;21.50;51.00;;;;;;6331942;27;20745;-43
2021/12/28 02:35:13;;;;;;;;;;;21.50;51.10;;;;;;6334303;28;19923;-42
2021/12/28 02:38:14;;;;;;;;;;;21.50;51.10;;;;;;6343074;27;20011;-42
2021/12/28 02:41:16;;;;;;;;;;;22.30;51.50;;;;;;6333094;27;20530;-42
2021/12/28 02:44:17;;;;;;;;;;;21.70;51.20;;;;;;6308715;28;19931;-42
2021/12/28 02:47:18;;;;;;;;;;;21.40;51.00;;;;;;6318927;27;20429;-42
2021/12/28 02:50:22;;;;;;;;;;;21.60;51.20;;;;;;6323684;27;20256;-43
2021/12/28 02:53:23;;;;;;;;;;;21.80;51.20;;;;;;6336706;27;19990;-42
2021/12/28 02:56:25;;;;;;;;;;;21.80;51.20;;;;;;6319231;27;19977;-43
2021/12/28 02:59:26;;;;;;;;;;;21.50;51.00;;;;;;6340131;27;20297;-42
2021/12/28 03:02:28;;;;;;;;;;;21.90;51.40;;;;;;6330235;27;20417;-41
2021/12/28 03:05:30;;;;;;;;;;;21.70;51.20;;;;;;6331747;27;20329;-42
2021/12/28 03:08:32;;;;;;;;;;;21.50;51.00;;;;;;6344813;27;20414;-43
2021/12/28 03:11:34;;;;;;;;;;;21.80;51.20;;;;;;6302045;27;19973;-44
2021/12/28 03:14:36;;;;;;;;;;;22.00;51.20;;;;;;6329297;27;19977;-43
2021/12/28 03:17:38;;;;;;;;;;;21.60;51.00;;;;;;6325645;28;20391;-42
2021/12/28 03:20:40;;;;;;;;;;;22.00;51.20;;;;;;6325532;28;19967;-42
2021/12/28 03:23:43;;;;;;;;;;;21.60;51.00;;;;;;6329577;28;20529;-42
2021/12/28 03:26:44;;;;;;;;;;;21.60;50.90;;;;;;6307311;28;19928;-42
2021/12/28 03:29:46;;;;;;;;;;;21.80;51.00;;;;;;6335586;27;20717;-44
2021/12/28 03:32:47;;;;;;;;;;;21.50;50.90;;;;;;6345538;27;19962;-42
2021/12/28 03:35:49;;;;;;;;;;;21.40;50.80;;;;;;6346388;27;19923;-43
2021/12/28 03:38:51;;;;;;;;;;;21.60;50.90;;;;;;6327765;28;20359;-42
2021/12/28 03:41:52;;;;;;;;;;;21.90;51.10;;;;;;6310388;28;19931;-42
2021/12/28 03:44:53;;;;;;;;;;;21.80;51.10;;;;;;6325523;28;19923;-42
2021/12/28 03:47:55;;;;;;;;;;;21.70;51.00;;;;;;6301981;28;19923;-42
2021/12/28 03:50:57;;;;;;;;;;;21.60;50.90;;;;;;6339507;27;19966;-42
2021/12/28 03:53:58;;;;;;;;;;;21.50;50.80;;;;;;6343152;27;19927;-42
2021/12/28 03:57:00;;;;;;;;;;;21.40;50.70;;;;;;6305617;27;19923;-42
2021/12/28 04:00:03;;;;;;;;;;;21.90;51.00;;;;;;6343668;27;20553;-42
2021/12/28 04:03:06;;;;;;;;;;;21.60;50.80;;;;;;6332800;27;19987;-42
2021/12/28 04:06:09;;;;;;;;;;;21.60;50.90;;;;;;6328320;27;20821;-43
2021/12/28 04:09:11;;;;;;;;;;;21.60;50.90;;;;;;6337268;27;20043;-45
2021/12/28 04:12:13;;;;;;;;;;;21.90;51.00;;;;;;6324585;27;20645;-43
2021/12/28 04:15:14;;;;;;;;;;;22.00;51.10;;;;;;6327239;28;19978;-42
2021/12/28 04:18:16;;;;;;;;;;;21.40;50.90;;;;;;6313308;28;20022;-42
2021/12/28 04:21:18;;;;;;;;;;;21.50;50.70;;;;;;6331516;28;20410;-42
2021/12/28 04:24:20;;;;;;;;;;;21.70;50.90;;;;;;6343376;27;20011;-42
2021/12/28 04:27:21;;;;;;;;;;;21.80;50.90;;;;;;6328937;27;19927;-42
2021/12/28 04:30:23;;;;;;;;;;;22.10;51.10;;;;;;6328016;28;19955;-42
2021/12/28 04:33:24;;;;;;;;;;;21.60;50.90;;;;;;6330401;28;20738;-42
2021/12/28 04:36:26;;;;;;;;;;;21.60;50.90;;;;;;6325202;28;20612;-42
2021/12/28 04:39:27;;;;;;;;;;;21.60;50.90;;;;;;6311307;28;19931;-42
2021/12/28 04:42:30;;;;;;;;;;;21.90;51.00;;;;;;6335102;27;19927;-42
2021/12/28 04:45:31;;;;;;;;;;;21.80;51.00;;;;;;6346074;27;20390;-43
2021/12/28 04:48:33;;;;;;;;;;;21.60;50.90;;;;;;6328830;28;19967;-42
2021/12/28 04:51:35;;;;;;;;;;;21.60;50.80;;;;;;6325961;28;19930;-43
2021/12/28 04:54:37;;;;;;;;;;;21.90;51.00;;;;;;6324196;27;20001;-43
2021/12/28 04:57:40;;;;;;;;;;;21.50;50.80;;;;;;6328389;27;19927;-42
2021/12/28 05:00:42;;;;;;;;;;;22.00;51.00;;;;;;6338317;27;20046;-42
2021/12/28 05:03:43;;;;;;;;;;;21.60;50.80;;;;;;6328223;27;20584;-44
2021/12/28 05:06:45;;;;;;;;;;;21.50;50.80;;;;;;6332962;27;19943;-43
2021/12/28 05:09:47;;;;;;;;;;;21.90;51.00;;;;;;6336185;27;19930;-42
2021/12/28 05:12:50;;;;;;;;;;;21.90;51.00;;;;;;6320124;28;19931;-44
2021/12/28 05:15:52;;;;;;;;;;;21.70;50.90;;;;;;6324423;28;19934;-42
2021/12/28 05:18:54;;;;;;;;;;;22.10;51.10;;;;;;6338746;27;19991;-42
2021/12/28 05:21:56;;;;;;;;;;;21.50;50.80;;;;;;6315832;28;20061;-43
2021/12/28 05:24:57;;;;;;;;;;;21.70;50.90;;;;;;6320184;27;20418;-44
2021/12/28 05:27:59;;;;;;;;;;;21.70;51.00;;;;;;6320311;27;20347;-42
2021/12/28 05:31:00;;;;;;;;;;;21.50;50.80;;;;;;6329219;27;19985;-42
2021/12/28 05:34:02;;;;;;;;;;;21.80;51.00;;;;;;6320166;28;20329;-43
2021/12/28 05:37:04;;;;;;;;;;;21.30;50.70;;;;;;6318487;28;20554;-42
2021/12/28 05:40:07;;;;;;;;;;;22.00;51.00;;;;;;6337166;27;20022;-42
2021/12/28 05:43:09;;;;;;;;;;;22.00;51.00;;;;;;6326187;27;20034;-43
2021/12/28 05:46:10;;;;;;;;;;;21.80;51.00;;;;;;6317731;27;20839;-42
2021/12/28 05:49:12;;;;;;;;;;;21.60;50.90;;;;;;6314640;28;19927;-44
2021/12/28 05:52:14;;;;;;;;;;;21.50;51.40;;;;;;6325798;28;19927;-42
2021/12/28 05:55:15;;;;;;;;;;;21.60;50.90;;;;;;6318515;28;19927;-42
2021/12/28 05:58:17;;;;;;;;;;;21.40;50.80;;;;;;6333356;27;20752;-42
2021/12/28 06:01:19;;;;;;;;;;;21.50;50.90;;;;;;6334635;27;20022;-44
2021/12/28 06:04:20;;;;;;;;;;;21.90;51.10;;;;;;6347788;27;19934;-42
2021/12/28 06:07:27;;;;;;;;;;;21.60;51.00;;;;;;6324513;27;20030;-43
2021/12/28 06:10:28;;;;;;;;;;;21.80;51.00;;;;;;6326273;27;19977;-43
2021/12/28 06:13:30;;;;;;;;;;;22.10;51.20;;;;;;6341188;27;20005;-43
2021/12/28 06:16:31;;;;;;;;;;;21.90;51.10;;;;;;6334579;27;19927;-43
2021/12/28 06:19:32;;;;;;;;;;;21.70;51.00;;;;;;6321547;28;20353;-43
2021/12/28 06:22:34;;;;;;;;;;;21.70;51.00;;;;;;6303688;28;20023;-44
2021/12/28 06:25:35;;;;;;;;;;;21.50;51.00;;;;;;6321283;28;19958;-44
2021/12/28 06:28:37;;;;;;;;;;;21.60;51.00;;;;;;6321823;27;20026;-43
2021/12/28 06:31:38;;;;;;;;;;;21.60;51.00;;;;;;6317654;27;19932;-43
2021/12/28 06:34:40;;;;;;;;;;;21.70;51.00;;;;;;6333078;27;19934;-43
2021/12/28 06:37:43;;;;;;;;;;;21.60;51.10;;;;;;6321216;28;20707;-43
2021/12/28 06:40:45;;;;;;;;;;;21.60;50.90;;;;;;6321627;28;20737;-40
2021/12/28 06:43:48;;;;;;;;;;;21.90;51.00;;;;;;6314897;28;20042;-40
2021/12/28 06:46:49;;;;;;;;;;;21.50;50.80;;;;;;6300319;28;19927;-41
2021/12/28 06:49:51;;;;;;;;;;;21.40;50.70;;;;;;6316323;28;19934;-40
2021/12/28 06:52:52;;;;;;;;;;;22.00;51.00;;;;;;6332374;27;20037;-41
2021/12/28 06:55:54;;;;;;;;;;;21.70;50.70;;;;;;6330313;27;20855;-40
2021/12/28 06:58:56;;;;;;;;;;;21.60;50.70;;;;;;6332822;27;20644;-41
2021/12/28 07:02:00;;;;;;;;;;;22.00;50.80;;;;;;6309150;27;19923;-40
2021/12/28 07:05:01;;;;;;;;;;;22.10;50.80;;;;;;6307038;27;19927;-41
2021/12/28 07:08:03;;;;;;;;;;;21.70;50.70;;;;;;6312357;27;20089;-41
2021/12/28 07:11:05;;;;;;;;;;;21.90;50.70;;;;;;6311221;27;20190;-40
2021/12/28 07:14:06;;;;;;;;;;;22.20;50.80;;;;;;6284071;28;19946;-42
2021/12/28 07:17:07;;;;;;;;;;;22.10;50.80;;;;;;6304221;27;20838;-40
2021/12/28 07:20:09;;;;;;;;;;;21.80;50.60;;;;;;6304927;27;19966;-40
2021/12/28 07:23:13;;;;;;;;;;;21.70;50.40;;;;;;6273975;27;19999;-42
2021/12/28 07:26:15;;;;;;;;;;;21.80;50.40;;;;;;6306441;27;20046;-41
2021/12/28 07:29:16;;;;;;;;;;;22.10;50.60;;;;;;6295274;28;19935;-43
2021/12/28 07:32:18;;;;;;;;;;;21.80;50.40;;;;;;6293137;27;20038;-43
2021/12/28 07:35:20;;;;;;;;;;;21.70;50.40;;;;;;6287320;27;20042;-44
2021/12/28 07:38:21;;;;;;;;;;;22.10;50.50;;;;;;6295122;27;19927;-41
2021/12/28 07:41:23;;;;;;;;;;;22.30;50.60;;;;;;6288443;27;20050;-41
2021/12/28 07:44:25;;;;;;;;;;;22.00;50.40;;;;;;6284072;27;19934;-40
2021/12/28 07:47:26;;;;;;;;;;;22.00;50.40;;;;;;6287053;27;19932;-41
2021/12/28 07:50:27;;;;;;;;;;;21.30;50.00;;;;;;6278466;27;20034;-44
2021/12/28 07:53:30;;;;;;;;;;;22.10;50.40;;;;;;6272369;27;20038;-41
2021/12/28 07:56:31;;;;;;;;;;;22.30;50.40;;;;;;6279806;27;20151;-41
2021/12/28 07:59:33;;;;;;;;;;;22.20;50.40;;;;;;6272516;27;19935;-41
2021/12/28 08:02:34;;;;;;;;;;;22.00;50.30;;;;;;6274777;27;20911;-41
2021/12/28 08:05:36;;;;;;;;;;;22.30;50.50;;;;;;6244764;27;20796;-41
2021/12/28 08:08:38;;;;;;;;;;;22.30;50.30;;;;;;6262915;27;19927;-43
2021/12/28 08:11:39;;;;;;;;;;;22.40;50.40;;;;;;6279639;27;20069;-41
2021/12/28 08:14:42;;;;;;;;;;;22.30;50.30;;;;;;6256264;27;19927;-41
2021/12/28 08:17:43;;;;;;;;;;;22.30;50.30;;;;;;6249839;27;20902;-43
2021/12/28 08:20:45;;;;;;;;;;;22.40;50.20;;;;;;6270080;27;19938;-40
2021/12/28 08:23:47;;;;;;;;;;;22.20;50.10;;;;;;6264340;27;19972;-40
2021/12/28 08:26:53;;;;;;;;;;;22.40;50.20;;;;;;6241518;27;19927;-41
2021/12/28 08:29:55;;;;;;;;;;;22.10;50.00;;;;;;6272181;27;20046;-40
2021/12/28 08:32:57;;;;;;;;;;;22.10;50.10;;;;;;6261181;27;20919;-40
2021/12/28 08:35:59;;;;;;;;;;;22.20;50.00;;;;;;6254040;27;19927;-40
2021/12/28 08:39:02;;;;;;;;;;;22.60;50.00;;;;;;6264970;27;19928;-40
2021/12/28 08:42:04;;;;;;;;;;;22.30;50.00;;;;;;6253881;27;19927;-40
2021/12/28 08:45:06;;;;;;;;;;;22.50;50.20;;;;;;6256588;27;20066;-42
2021/12/28 08:48:10;;;;;;;;;;;22.00;49.80;;;;;;6269281;27;20036;-41
2021/12/28 08:51:12;;;;;;;;;;;22.20;49.90;;;;;;6268513;27;19932;-42
2021/12/28 08:54:14;;;;;;;;;;;22.40;50.00;;;;;;6259240;27;19977;-42
2021/12/28 08:57:15;;;;;;;;;;;22.20;49.80;;;;;;6273255;27;19927;-42
2021/12/28 09:00:18;;;;;;;;;;;22.10;49.70;;;;;;6272635;27;19998;-42
2021/12/28 09:03:20;;;;;;;;;;;22.30;49.80;;;;;;6242575;27;20156;-42
2021/12/28 09:06:22;;;;;;;;;;;22.30;49.80;;;;;;6256397;27;20002;-42
2021/12/28 09:09:24;;;;;;;;;;;22.40;49.80;;;;;;6264884;27;19928;-42
2021/12/28 09:12:25;;;;;;;;;;;22.20;49.70;;;;;;6254168;27;20040;-42
2021/12/28 09:15:26;;;;;;;;;;;22.20;49.70;;;;;;6261012;27;21830;-42
2021/12/28 09:18:28;;;;;;;;;;;22.00;49.60;;;;;;6258331;27;19928;-42
2021/12/28 09:21:30;;;;;;;;;;;22.60;49.90;;;;;;6263256;27;21123;-42
2021/12/28 09:24:32;;;;;;;;;;;22.50;49.70;;;;;;6266955;27;19928;-42
2021/12/28 09:27:44;;;;;;;;;;;22.10;49.60;;;;;;6258229;27;19934;-43
2021/12/28 09:30:46;;;;;;;;;;;22.60;49.80;;;;;;6274332;27;20012;-45
2021/12/28 09:33:48;;;;;;;;;;;22.60;49.70;;;;;;6261763;27;20752;-42
2021/12/28 09:36:49;;;;;;;;;;;22.60;49.80;;;;;;6267713;27;19959;-46
2021/12/28 09:39:51;;;;;;;;;;;22.80;49.90;;;;;;6269017;27;21665;-42
2021/12/28 09:42:53;;;;;;;;;;;22.50;49.60;;;;;;6283410;27;20061;-42
2021/12/28 09:45:54;;;;;;;;;;;22.70;49.70;;;;;;6254970;27;20007;-42
2021/12/28 09:48:56;;;;;;;;;;;22.40;49.50;;;;;;6275155;27;19934;-43
2021/12/28 09:51:58;;;;;;;;;;;22.70;49.60;;;;;;6243603;27;19927;-42
2021/12/28 09:55:01;;;;;;;;;;;22.60;49.60;;;;;;6280023;27;19927;-43
2021/12/28 09:58:02;;;;;;;;;;;22.70;49.70;;;;;;6258446;27;19997;-41
2021/12/28 10:01:09;;;;;;;;;;;22.70;49.60;;;;;;6259140;27;19975;-41
2021/12/28 10:04:10;;;;;;;;;;;22.50;49.50;;;;;;6279802;27;19960;-41
2021/12/28 10:07:14;;;;;;;;;;;22.70;49.60;;;;;;6275057;27;20045;-41
2021/12/28 10:10:16;;;;;;;;;;;22.50;49.40;;;;;;6272554;27;20007;-41
2021/12/28 10:13:19;;;;;;;;;;;22.40;49.40;;;;;;6272612;27;19932;-43
2021/12/28 10:16:35;;;;;;;;;;;22.50;49.40;;;;;;6272359;27;21010;-42
2021/12/28 10:19:38;;;;;;;;;;;22.90;49.60;;;;;;6257801;27;19924;-45
2021/12/28 10:22:42;;;;;;;;;;;22.60;49.50;;;;;;6257475;27;19938;-42
2021/12/28 10:25:47;;;;;;;;;;;22.70;49.60;;;;;;6277296;27;19957;-41
2021/12/28 10:28:48;;;;;;;;;;;22.70;49.70;;;;;;6256845;27;19923;-42
2021/12/28 10:32:11;;;;;;;;;;;22.70;49.50;;;;;;6274345;27;19927;-42
2021/12/28 10:35:14;;;;;;;;;;;22.60;49.40;;;;;;6259897;27;21242;-42
2021/12/28 10:38:17;;;;;;;;;;;22.90;49.50;;;;;;6284178;27;19927;-42
2021/12/28 10:41:19;;;;;;;;;;;22.70;49.40;;;;;;6251490;27;21695;-42
2021/12/28 10:44:21;;;;;;;;;;;22.90;49.50;;;;;;6276990;27;21198;-42
2021/12/28 10:47:23;;;;;;;;;;;22.80;49.40;;;;;;6280624;27;19927;-43
2021/12/28 10:50:27;;;;;;;;;;;22.40;49.20;;;;;;6260680;27;19934;-42
2021/12/28 10:53:35;;;;;;;;;;;22.80;49.30;;;;;;6269719;27;20915;-44
2021/12/28 10:56:39;;;;;;;;;;;22.70;49.30;;;;;;6251766;27;19927;-45
2021/12/28 10:59:41;;;;;;;;;;;22.80;49.30;;;;;;6277249;27;19935;-42
2021/12/28 11:02:43;;;;;;;;;;;22.60;49.20;;;;;;6268485;27;20005;-42
2021/12/28 11:05:46;;;;;;;;;;;22.80;49.30;;;;;;6266001;27;19975;-42
2021/12/28 11:08:49;;;;;;;;;;;22.60;49.20;;;;;;6256832;27;19954;-42
2021/12/28 11:11:52;;;;;;;;;;;23.00;49.40;;;;;;6282987;27;19928;-42
2021/12/28 11:14:53;;;;;;;;;;;22.60;49.20;;;;;;6278176;27;20836;-42
2021/12/28 11:17:54;;;;;;;;;;;22.70;49.20;;;;;;6278121;27;19931;-42
2021/12/28 11:20:57;;;;;;;;;;;22.90;49.30;;;;;;6260245;27;20037;-42
2021/12/28 11:24:04;;;;;;;;;;;23.00;49.30;;;;;;6288222;27;20392;-44
2021/12/28 11:27:07;;;;;;;;;;;22.80;49.30;;;;;;6261176;27;19935;-42
2021/12/28 11:30:28;;;;;;;;;;;23.00;49.30;;;;;;6248481;27;19934;-42
2021/12/28 11:33:44;;;;;;;;;;;22.80;49.30;;;;;;6284049;27;19919;-44
2021/12/28 11:36:47;;;;;;;;;;;22.60;49.10;;;;;;6265594;27;19928;-41
2021/12/28 11:39:50;;;;;;;;;;;22.80;49.20;;;;;;6270853;27;19927;-41
2021/12/28 11:42:52;;;;;;;;;;;22.70;49.80;;;;;;6284348;27;20022;-42
2021/12/28 11:45:53;;;;;;;;;;;22.80;49.30;;;;;;6274096;27;20034;-42
2021/12/28 11:48:55;;;;;;;;;;;22.70;49.20;;;;;;6276888;27;19923;-44
2021/12/28 11:51:58;;;;;;;;;;;22.60;49.10;;;;;;6292878;27;19927;-41
2021/12/28 11:55:01;;;;;;;;;;;22.60;49.10;;;;;;6281109;27;19940;-42
2021/12/28 11:58:03;;;;;;;;;;;22.70;49.20;;;;;;6295094;27;19927;-42
2021/12/28 12:01:04;;;;;;;;;;;23.00;49.30;;;;;;6285502;27;19927;-42
2021/12/28 12:04:40;;;;;;;;;;;22.90;49.30;;;;;;6281366;27;19961;-41
2021/12/28 12:07:41;;;;;;;;;;;22.60;49.00;;;;;;6288403;27;21355;-41
2021/12/28 12:10:43;;;;;;;;;;;22.50;49.00;;;;;;6271091;27;20860;-41
2021/12/28 12:13:48;;;;;;;;;;;22.80;49.10;;;;;;6283832;27;19927;-41
2021/12/28 12:17:12;;;;;;;;;;;22.90;49.20;;;;;;6274358;27;20046;-42
2021/12/28 12:20:29;;;;;;;;;;;23.10;49.30;;;;;;6267790;27;19928;-42
2021/12/28 12:23:40;;;;;;;;;;;23.00;49.20;;;;;;6283426;27;19967;-42
2021/12/28 12:26:42;;;;;;;;;;;22.70;49.00;;;;;;6286201;27;19934;-42
2021/12/28 12:29:44;;;;;;;;;;;22.50;48.90;;;;;;6278801;27;20636;-42
2021/12/28 12:33:00;;;;;;;;;;;22.90;49.10;;;;;;6277288;27;19927;-41
2021/12/28 12:36:02;;;;;;;;;;;22.70;49.00;;;;;;6285933;27;20932;-41
2021/12/28 12:39:04;;;;;;;;;;;22.60;48.90;;;;;;6284653;27;19934;-41
2021/12/28 12:42:09;;;;;;;;;;;22.90;49.10;;;;;;6256492;28;19973;-44
2021/12/28 12:45:12;;;;;;;;;;;22.70;48.90;;;;;;6279040;27;21452;-42
2021/12/28 12:48:29;;;;;;;;;;;23.00;49.10;;;;;;6283122;27;20836;-42
2021/12/28 12:51:32;;;;;;;;;;;22.70;48.90;;;;;;6287304;27;21496;-42
2021/12/28 12:54:40;;;;;;;;;;;23.20;49.20;;;;;;6235088;27;20008;-42
2021/12/28 12:57:41;;;;;;;;;;;22.60;48.90;;;;;;6268043;27;19930;-42
2021/12/28 13:00:43;;;;;;;;;;;22.60;48.80;;;;;;6265733;27;19927;-41
2021/12/28 13:03:45;;;;;;;;;;;22.90;49.00;;;;;;6260122;27;19927;-43
2021/12/28 13:07:01;;;;;;;;;;;22.70;48.80;;;;;;6250328;27;21025;-42
2021/12/28 13:10:05;;;;;;;;;;;22.90;48.90;;;;;;6245082;27;20046;-42
2021/12/28 13:13:12;;;;;;;;;;;22.90;48.90;;;;;;6244368;27;20871;-41
2021/12/28 13:16:14;;;;;;;;;;;22.70;48.70;;;;;;6251279;27;19934;-41
2021/12/28 13:19:16;;;;;;;;;;;23.20;49.00;;;;;;6264144;27;20054;-41
2021/12/28 13:22:18;;;;;;;;;;;23.10;49.60;;;;;;6272463;27;20995;-42
2021/12/28 13:25:21;;;;;;;;;;;22.90;48.80;;;;;;6272937;27;19928;-42
2021/12/28 13:28:24;;;;;;;;;;;23.00;48.90;;;;;;6245854;27;19999;-42
2021/12/28 13:31:27;;;;;;;;;;;23.00;48.80;;;;;;6274369;27;20004;-43
2021/12/28 13:34:28;;;;;;;;;;;22.80;48.70;;;;;;6277962;27;19931;-42
2021/12/28 13:37:32;;;;;;;;;;;22.60;48.60;;;;;;6285118;27;21848;-41
2021/12/28 13:40:35;;;;;;;;;;;22.90;48.60;;;;;;6276636;27;19928;-41
2021/12/28 13:43:37;;;;;;;;;;;22.90;48.70;;;;;;6258640;27;20758;-42
2021/12/28 13:46:39;;;;;;;;;;;23.00;48.70;;;;;;6250389;27;20042;-42
2021/12/28 13:49:40;;;;;;;;;;;23.00;48.60;;;;;;6262299;27;20639;-42
2021/12/28 13:52:43;;;;;;;;;;;22.80;48.50;;;;;;6276134;27;20912;-42
2021/12/28 13:55:49;;;;;;;;;;;22.60;48.40;;;;;;6281431;27;19993;-42
2021/12/28 13:58:51;;;;;;;;;;;22.90;48.50;;;;;;6263923;27;19928;-42
2021/12/28 14:01:54;;;;;;;;;;;22.80;48.40;;;;;;6257312;27;21702;-43
2021/12/28 14:05:00;;;;;;;;;;;22.90;48.50;;;;;;6261083;27;19934;-42
2021/12/28 14:08:03;;;;;;;;;;;23.10;48.60;;;;;;6262348;27;20040;-42
2021/12/28 14:11:05;;;;;;;;;;;23.20;48.60;;;;;;6237127;27;20756;-42
2021/12/28 14:14:12;;;;;;;;;;;23.30;49.20;;;;;;6269584;27;19934;-42
2021/12/28 14:17:14;;;;;;;;;;;23.20;48.60;;;;;;6249381;27;19931;-46
2021/12/28 14:20:16;;;;;;;;;;;23.30;48.60;;;;;;6265961;27;20050;-42
2021/12/28 14:23:26;;;;;;;;;;;22.90;48.40;;;;;;6273403;27;21038;-42
2021/12/28 14:26:32;;;;;;;;;;;23.20;48.50;;;;;;6267853;27;19954;-42
2021/12/28 14:29:39;;;;;;;;;;;23.50;48.60;;;;;;6242142;27;19927;-42
2021/12/28 14:32:43;;;;;;;;;;;23.10;48.40;;;;;;6259072;27;20000;-43
2021/12/28 14:35:44;;;;;;;;;;;23.20;48.50;;;;;;6269055;27;19948;-42
2021/12/28 14:38:46;;;;;;;;;;;23.00;48.30;;;;;;6259619;27;20826;-45
2021/12/28 14:41:48;;;;;;;;;;;23.20;48.50;;;;;;6273313;27;19927;-42
2021/12/28 14:44:51;;;;;;;;;;;23.00;48.30;;;;;;6269617;27;20042;-45
2021/12/28 14:47:54;;;;;;;;;;;22.90;48.30;;;;;;6267791;27;19927;-42
2021/12/28 14:50:55;;;;;;;;;;;23.00;48.30;;;;;;6248008;27;19988;-42
2021/12/28 14:54:04;;;;;;;;;;;22.90;48.30;;;;;;6253399;27;20762;-42
2021/12/28 14:57:06;;;;;;;;;;;23.50;48.60;;;;;;6268942;27;20046;-42
2021/12/28 15:00:09;;;;;;;;;;;23.10;48.40;;;;;;6268923;27;21856;-42
2021/12/28 15:03:16;;;;;;;;;;;23.10;48.30;;;;;;6253307;27;20020;-45
2021/12/28 15:06:17;;;;;;;;;;;23.00;48.30;;;;;;6230225;27;19949;-42
2021/12/28 15:09:21;;;;;;;;;;;23.00;48.30;;;;;;6247549;27;19930;-42
2021/12/28 15:12:22;;;;;;;;;;;22.70;48.20;;;;;;6257516;27;19928;-42
2021/12/28 15:15:23;;;;;;;;;;;23.10;48.40;;;;;;6255887;27;20559;-43
2021/12/28 15:18:32;;;;;;;;;;;22.90;48.30;;;;;;6263229;27;19928;-42
2021/12/28 15:21:33;;;;;;;;;;;22.80;48.20;;;;;;6258565;27;19934;-47
2021/12/28 15:24:34;;;;;;;;;;;22.90;48.30;;;;;;6253267;27;19965;-45
2021/12/28 15:27:38;;;;;;;;;;;23.20;48.50;;;;;;6246333;27;19966;-47
2021/12/28 15:30:43;;;;;;;;;;;23.10;48.30;;;;;;6267775;27;19974;-45
2021/12/28 15:33:44;;;;;;;;;;;23.20;48.40;;;;;;6267698;27;21043;-45
2021/12/28 15:36:47;;;;;;;;;;;22.90;48.20;;;;;;6256475;27;19931;-42
2021/12/28 15:39:48;;;;;;;;;;;23.00;48.30;;;;;;6252755;27;20073;-44
2021/12/28 15:42:49;;;;;;;;;;;23.20;48.40;;;;;;6243187;27;19927;-42
2021/12/28 15:45:53;;;;;;;;;;;23.10;48.40;;;;;;6256734;27;19927;-42
2021/12/28 15:48:55;;;;;;;;;;;23.00;48.30;;;;;;6272009;27;19966;-42
2021/12/28 15:51:57;;;;;;;;;;;22.90;48.20;;;;;;6268282;27;19949;-42
2021/12/28 15:54:58;;;;;;;;;;;22.90;48.30;;;;;;6269491;27;20295;-42
2021/12/28 15:57:59;;;;;;;;;;;22.70;48.20;;;;;;6264248;27;19927;-43
2021/12/28 16:01:01;;;;;;;;;;;23.10;48.50;;;;;;6268242;27;21356;-42
2021/12/28 16:04:03;;;;;;;;;;;23.00;48.40;;;;;;6270790;27;19935;-42
2021/12/28 16:07:05;;;;;;;;;;;23.00;49.00;;;;;;6275859;27;19927;-44
2021/12/28 16:10:07;;;;;;;;;;;23.00;48.30;;;;;;6261585;27;19928;-42
2021/12/28 16:13:08;;;;;;;;;;;23.00;48.30;;;;;;6259027;27;19928;-42
2021/12/28 16:16:09;;;;;;;;;;;23.10;48.40;;;;;;6260619;27;19923;-42
2021/12/28 16:19:11;;;;;;;;;;;22.90;48.30;;;;;;6249660;27;22170;-43
2021/12/28 16:22:14;;;;;;;;;;;23.00;48.30;;;;;;6265707;27;20220;-43
2021/12/28 16:25:15;;;;;;;;;;;23.10;48.40;;;;;;6263884;27;19933;-42
2021/12/28 16:28:16;;;;;;;;;;;22.80;48.20;;;;;;6243861;27;19995;-42
2021/12/28 16:31:18;;;;;;;;;;;23.00;48.30;;;;;;6263154;27;19927;-43
2021/12/28 16:34:20;;;;;;;;;;;22.90;48.30;;;;;;6278576;27;21013;-43
2021/12/28 16:37:22;;;;;;;;;;;23.00;48.30;;;;;;6261523;27;19927;-42
2021/12/28 16:40:24;;;;;;;;;;;23.10;48.40;;;;;;6264345;27;20151;-43
2021/12/28 16:43:25;;;;;;;;;;;22.90;48.20;;;;;;6239674;27;20882;-42
2021/12/28 16:46:27;;;;;;;;;;;23.00;48.90;;;;;;6279393;27;19933;-43
2021/12/28 16:49:29;;;;;;;;;;;23.30;48.40;;;;;;6269616;27;19935;-42
2021/12/28 16:52:30;;;;;;;;;;;22.90;48.20;;;;;;6283510;27;19994;-42
2021/12/28 16:55:32;;;;;;;;;;;22.90;48.20;;;;;;6276683;27;19927;-43
2021/12/28 16:58:34;;;;;;;;;;;23.00;48.30;;;;;;6272196;27;20108;-42
2021/12/28 17:01:36;;;;;;;;;;;23.10;48.50;;;;;;6278179;27;19928;-42
2021/12/28 17:04:38;;;;;;;;;;;23.30;48.60;;;;;;6278125;27;19934;-43
2021/12/28 17:07:39;;;;;;;;;;;22.90;48.40;;;;;;6270607;27;20671;-42
2021/12/28 17:10:44;;;;;;;;;;;23.20;48.70;;;;;;6272495;27;19934;-42
2021/12/28 17:13:45;;;;;;;;;;;22.80;48.50;;;;;;6259370;27;19941;-43
2021/12/28 17:16:46;;;;;;;;;;;22.70;48.50;;;;;;6284314;27;19981;-43
2021/12/28 17:19:48;;;;;;;;;;;22.80;48.50;;;;;;6285544;27;19928;-43
2021/12/28 17:22:50;;;;;;;;;;;22.90;48.60;;;;;;6295531;27;20950;-43
2021/12/28 17:25:51;;;;;;;;;;;22.90;48.70;;;;;;6286042;27;20112;-42
2021/12/28 17:28:53;;;;;;;;;;;22.70;48.60;;;;;;6278474;27;19928;-42
2021/12/28 17:31:54;;;;;;;;;;;22.50;48.50;;;;;;6280608;27;19924;-42
2021/12/28 17:34:56;;;;;;;;;;;22.60;48.60;;;;;;6258084;27;19935;-42
2021/12/28 17:38:03;;;;;;;;;;;22.60;48.60;;;;;;6284912;27;20036;-42
2021/12/28 17:41:05;;;;;;;;;;;22.80;48.70;;;;;;6288906;27;20713;-42